createdAt,value
2019-05-22T00:01:09.230Z,23.53
2019-05-22T00:03:48.887Z,25.57
2019-05-22T00:06:19.931Z,25.73
2019-05-22T00:08:50.036Z,24.93
2019-05-22T00:11:21.252Z,25.37
2019-05-22T00:13:50.758Z,25.33
2019-05-22T00:16:21.749Z,26.20
2019-05-22T00:18:52.309Z,26.10
2019-05-22T00:21:22.558Z,27.20
2019-05-22T00:23:52.197Z,26.37
2019-05-22T00:26:21.884Z,25.57
2019-05-22T00:28:50.944Z,26.77
2019-05-22T00:31:20.226Z,26.73
2019-05-22T00:33:49.170Z,25.53
2019-05-22T00:36:18.264Z,25.70
2019-05-22T00:38:48.065Z,25.00
2019-05-22T00:41:20.665Z,24.77
2019-05-22T00:43:51.565Z,24.43
2019-05-22T00:46:21.272Z,24.00
2019-05-22T00:48:51.548Z,23.70
2019-05-22T00:51:27.126Z,23.20
2019-05-22T00:54:08.019Z,23.63
2019-05-22T00:56:57.074Z,23.07
2019-05-22T00:59:31.319Z,23.43
2019-05-22T01:02:03.037Z,23.13
2019-05-22T01:04:37.919Z,22.30
2019-05-22T01:07:12.008Z,21.77
2019-05-22T01:09:44.223Z,22.70
2019-05-22T01:12:19.241Z,21.87
2019-05-22T01:14:49.725Z,21.47
2019-05-22T01:17:20.321Z,21.90
2019-05-22T01:19:51.761Z,21.13
2019-05-22T01:22:20.774Z,22.23
2019-05-22T01:24:50.956Z,21.67
2019-05-22T01:27:20.767Z,20.47
2019-05-22T01:29:50.582Z,21.93
2019-05-22T01:32:25.928Z,21.67
2019-05-22T01:34:55.012Z,22.30
2019-05-22T01:37:26.495Z,19.67
2019-05-22T01:40:10.038Z,21.07
2019-05-22T01:42:43.778Z,20.77
2019-05-22T01:45:15.823Z,20.07
2019-05-22T01:47:50.876Z,19.30
2019-05-22T01:50:24.152Z,18.10
2019-05-22T01:52:55.234Z,17.37
2019-05-22T01:55:24.633Z,17.23
2019-05-22T01:57:53.630Z,17.53
2019-05-22T02:00:22.330Z,16.60
2019-05-22T02:02:52.605Z,16.53
2019-05-22T02:05:22.908Z,15.93
2019-05-22T02:07:51.706Z,16.27
2019-05-22T02:10:24.478Z,17.00
2019-05-22T02:12:54.820Z,17.73
2019-05-22T02:15:23.491Z,19.33
2019-05-22T02:17:52.599Z,19.43
2019-05-22T02:20:22.414Z,22.37
2019-05-22T02:22:51.325Z,22.90
2019-05-22T02:25:21.595Z,23.10
2019-05-22T02:27:50.684Z,23.77
2019-05-22T02:30:21.218Z,24.03
2019-05-22T02:32:50.213Z,24.73
2019-05-22T02:35:19.007Z,26.00
2019-05-22T02:37:48.213Z,24.43
2019-05-22T02:40:20.038Z,23.83
2019-05-22T02:42:50.434Z,25.85
2019-05-22T02:45:20.123Z,23.73
2019-05-22T02:47:50.198Z,23.67
2019-05-22T02:50:20.022Z,23.00
2019-05-22T02:52:49.191Z,22.63
2019-05-22T02:55:17.886Z,22.70
2019-05-22T02:57:46.604Z,23.43
2019-05-22T03:00:16.788Z,22.17
2019-05-22T03:02:49.616Z,21.93
2019-05-22T03:05:20.606Z,22.33
2019-05-22T03:07:49.411Z,22.70
2019-05-22T03:10:20.178Z,20.97
2019-05-22T03:12:51.280Z,22.23
2019-05-22T03:15:21.895Z,21.40
2019-05-22T03:17:52.017Z,21.07
2019-05-22T03:20:23.045Z,22.23
2019-05-22T03:23:02.807Z,23.10
2019-05-22T03:25:33.207Z,23.60
2019-05-22T03:28:01.951Z,24.93
2019-05-22T03:30:32.439Z,24.40
2019-05-22T03:33:02.257Z,25.37
2019-05-22T03:35:33.163Z,25.80
2019-05-22T03:38:03.652Z,26.83
2019-05-22T03:40:34.933Z,27.13
2019-05-22T03:43:08.316Z,27.37
2019-05-22T03:45:37.281Z,27.20
2019-05-22T03:48:07.164Z,27.83
2019-05-22T03:50:37.384Z,27.33
2019-05-22T03:53:13.227Z,28.10
2019-05-22T03:55:41.927Z,27.93
2019-05-22T03:58:10.730Z,28.50
2019-05-22T04:00:43.242Z,29.63
2019-05-22T04:03:09.990Z,27.97
2019-05-22T04:05:38.704Z,28.00
2019-05-22T04:08:07.824Z,29.07
2019-05-22T04:10:41.279Z,27.87
2019-05-22T04:13:10.097Z,28.93
2019-05-22T04:15:38.794Z,28.30
2019-05-22T04:18:14.354Z,28.83
2019-05-22T04:20:43.449Z,28.43
2019-05-22T04:23:12.261Z,27.67
2019-05-22T04:25:41.075Z,28.60
2019-05-22T04:28:09.765Z,24.47
2019-05-22T04:30:38.470Z,21.10
2019-05-22T04:33:07.183Z,19.80
2019-05-22T04:35:35.887Z,19.50
2019-05-22T04:38:05.914Z,17.67
2019-05-22T04:40:54.184Z,17.60
2019-05-22T04:43:24.788Z,16.50
2019-05-22T04:45:54.734Z,16.63
2019-05-22T04:48:23.566Z,15.13
2019-05-22T04:50:53.089Z,17.50
2019-05-22T04:53:21.876Z,17.25
2019-05-22T04:55:51.088Z,15.90
2019-05-22T04:58:24.215Z,16.30
2019-05-22T05:00:53.364Z,15.13
2019-05-22T05:03:23.102Z,14.57
2019-05-22T05:05:51.915Z,15.30
2019-05-22T05:08:20.999Z,14.17
2019-05-22T05:10:52.507Z,14.53
2019-05-22T05:13:21.332Z,14.47
2019-05-22T05:15:50.044Z,13.37
2019-05-22T05:18:18.734Z,13.80
2019-05-22T05:20:47.457Z,13.53
2019-05-22T05:23:16.381Z,13.13
2019-05-22T05:25:45.503Z,13.20
2019-05-22T05:28:14.461Z,13.33
2019-05-22T05:30:43.151Z,12.60
2019-05-22T05:33:12.558Z,12.20
2019-05-22T05:35:42.289Z,11.87
2019-05-22T05:38:12.516Z,12.37
2019-05-22T05:40:45.120Z,12.87
2019-05-22T05:43:15.096Z,12.17
2019-05-22T05:45:45.131Z,13.85
2019-05-22T05:48:23.250Z,13.43
2019-05-22T05:51:18.331Z,12.97
2019-05-22T05:53:58.404Z,13.30
2019-05-22T05:56:28.968Z,12.80
2019-05-22T05:58:58.574Z,13.43
2019-05-22T06:01:34.181Z,12.57
2019-05-22T06:04:04.947Z,13.23
2019-05-22T06:07:00.532Z,12.70
2019-05-22T06:09:28.187Z,13.60
2019-05-22T06:11:58.006Z,13.13
2019-05-22T06:14:29.073Z,13.03
2019-05-22T06:17:31.131Z,12.60
2019-05-22T06:20:01.506Z,13.70
2019-05-22T06:22:30.841Z,12.17
2019-05-22T06:25:01.719Z,11.90
2019-05-22T06:27:44.184Z,11.50
2019-05-22T06:30:17.436Z,11.50
2019-05-22T06:33:05.469Z,10.83
2019-05-22T06:35:35.942Z,11.10
2019-05-22T06:38:09.378Z,10.50
2019-05-22T06:40:39.158Z,12.17
2019-05-22T06:43:27.527Z,13.63
2019-05-22T06:45:56.652Z,14.30
2019-05-22T06:48:25.375Z,14.37
2019-05-22T06:50:54.300Z,14.93
2019-05-22T06:53:23.047Z,15.50
2019-05-22T06:55:51.742Z,14.37
2019-05-22T06:58:20.454Z,16.23
2019-05-22T07:00:49.201Z,14.20
2019-05-22T07:03:18.679Z,15.33
2019-05-22T07:05:47.403Z,14.23
2019-05-22T07:08:16.626Z,14.23
2019-05-22T07:10:45.372Z,13.73
2019-05-22T07:13:14.755Z,14.60
2019-05-22T07:15:52.060Z,13.80
2019-05-22T07:18:23.901Z,14.73
2019-05-22T07:20:54.535Z,13.07
2019-05-22T07:23:28.290Z,13.30
2019-05-22T07:25:58.527Z,13.03
2019-05-22T07:28:28.966Z,14.30
2019-05-22T07:30:57.771Z,14.00
2019-05-22T07:33:26.790Z,14.43
2019-05-22T07:36:15.866Z,16.90
2019-05-22T07:38:26.255Z,15.57
2019-05-22T07:40:55.511Z,13.60
2019-05-22T07:43:25.535Z,13.43
2019-05-22T07:45:54.934Z,14.87
2019-05-22T07:48:25.657Z,13.33
2019-05-22T07:50:55.265Z,14.20
2019-05-22T07:53:25.005Z,14.60
2019-05-22T07:55:55.134Z,14.07
2019-05-22T07:58:24.106Z,14.10
2019-05-22T08:00:55.507Z,13.27
2019-05-22T08:03:24.932Z,13.07
2019-05-22T08:05:54.862Z,13.73
2019-05-22T08:08:24.830Z,14.83
2019-05-22T08:10:54.248Z,14.57
2019-05-22T08:13:23.674Z,15.23
2019-05-22T08:15:52.592Z,13.87
2019-05-22T08:18:21.711Z,13.80
2019-05-22T08:20:50.633Z,13.40
2019-05-22T08:23:19.582Z,13.53
2019-05-22T08:25:48.391Z,14.33
2019-05-22T08:28:18.306Z,14.47
2019-05-22T08:30:48.666Z,13.70
2019-05-22T08:33:18.575Z,13.93
2019-05-22T08:35:47.594Z,16.60
2019-05-22T08:38:19.590Z,15.17
2019-05-22T08:40:49.383Z,13.43
2019-05-22T08:43:18.706Z,14.40
2019-05-22T08:45:47.558Z,14.30
2019-05-22T08:48:17.456Z,14.30
2019-05-22T08:50:46.378Z,14.80
2019-05-22T08:53:16.415Z,15.00
2019-05-22T08:55:45.665Z,14.63
2019-05-22T08:58:15.498Z,15.25
2019-05-22T09:00:44.732Z,15.27
2019-05-22T09:03:13.509Z,14.00
2019-05-22T09:05:42.271Z,15.37
2019-05-22T09:08:11.037Z,14.83
2019-05-22T09:10:39.950Z,14.10
2019-05-22T09:13:08.744Z,15.83
2019-05-22T09:15:38.358Z,14.50
2019-05-22T09:18:08.293Z,14.70
2019-05-22T09:20:48.786Z,15.13
2019-05-22T09:23:08.153Z,14.90
2019-05-22T09:25:37.311Z,15.57
2019-05-22T09:28:06.627Z,15.57
2019-05-22T09:30:35.965Z,14.00
2019-05-22T09:33:06.388Z,14.27
2019-05-22T09:35:35.738Z,14.53
2019-05-22T09:38:04.454Z,14.93
2019-05-22T09:40:33.172Z,15.90
2019-05-22T09:43:02.088Z,14.70
2019-05-22T09:45:31.413Z,14.33
2019-05-22T09:48:00.915Z,15.00
2019-05-22T09:50:30.030Z,17.30
2019-05-22T09:52:59.351Z,17.10
2019-05-22T09:55:28.579Z,17.20
2019-05-22T09:57:57.322Z,17.13
2019-05-22T10:00:27.162Z,16.73
2019-05-22T10:02:56.084Z,17.83
2019-05-22T10:05:25.126Z,17.93
2019-05-22T10:08:01.440Z,19.00
2019-05-22T10:10:26.608Z,18.47
2019-05-22T10:12:55.319Z,17.80
2019-05-22T10:15:25.448Z,18.40
2019-05-22T10:17:54.551Z,18.07
2019-05-22T10:20:23.486Z,16.33
2019-05-22T10:22:52.365Z,16.20
2019-05-22T10:25:21.537Z,15.47
2019-05-22T10:27:50.662Z,16.03
2019-05-22T10:30:21.299Z,18.40
2019-05-22T10:32:50.248Z,18.87
2019-05-22T10:35:22.209Z,19.17
2019-05-22T10:37:51.066Z,19.00
2019-05-22T10:40:20.479Z,18.13
2019-05-22T10:42:49.588Z,17.53
2019-05-22T10:45:18.612Z,18.30
2019-05-22T10:47:48.715Z,18.83
2019-05-22T10:50:17.414Z,17.23
2019-05-22T10:52:47.060Z,16.53
2019-05-22T10:55:16.791Z,16.40
2019-05-22T10:57:45.763Z,16.63
2019-05-22T11:00:15.935Z,16.10
2019-05-22T11:02:44.728Z,16.47
2019-05-22T11:05:13.458Z,16.73
2019-05-22T11:07:42.766Z,15.50
2019-05-22T11:10:11.993Z,14.73
2019-05-22T11:12:40.873Z,15.23
2019-05-22T11:15:10.109Z,16.37
2019-05-22T11:17:39.638Z,17.47
2019-05-22T11:20:09.674Z,16.00
2019-05-22T11:22:38.591Z,15.07
2019-05-22T11:25:08.782Z,14.43
2019-05-22T11:27:37.520Z,14.10
2019-05-22T11:30:07.190Z,13.63
2019-05-22T11:32:35.903Z,13.80
2019-05-22T11:35:05.382Z,14.30
2019-05-22T11:37:34.129Z,14.10
2019-05-22T11:40:02.879Z,13.43
2019-05-22T11:42:31.811Z,13.13
2019-05-22T11:45:00.605Z,15.07
2019-05-22T11:47:29.533Z,14.90
2019-05-22T11:49:58.674Z,14.27
2019-05-22T11:52:28.645Z,15.03
2019-05-22T11:54:57.401Z,15.20
2019-05-22T11:57:26.522Z,14.93
2019-05-22T11:59:55.378Z,15.03
2019-05-22T12:02:24.292Z,15.30
2019-05-22T12:04:53.038Z,13.67
2019-05-22T12:07:22.143Z,13.77
2019-05-22T12:09:50.835Z,14.10
2019-05-22T12:12:19.875Z,14.07
2019-05-22T12:14:48.591Z,13.47
2019-05-22T12:17:34.740Z,12.53
2019-05-22T12:19:47.774Z,13.00
2019-05-22T12:22:19.809Z,12.43
2019-05-22T12:24:46.909Z,12.50
2019-05-22T12:27:15.867Z,12.20
2019-05-22T12:29:44.770Z,13.43
2019-05-22T12:32:13.620Z,12.97
2019-05-22T12:34:42.544Z,13.63
2019-05-22T12:37:11.578Z,11.53
2019-05-22T12:39:40.793Z,10.97
2019-05-22T12:42:11.170Z,11.43
2019-05-22T12:44:39.941Z,11.47
2019-05-22T12:47:09.163Z,9.77
2019-05-22T12:49:38.009Z,11.27
2019-05-22T12:52:08.953Z,12.57
2019-05-22T12:54:47.353Z,10.37
2019-05-22T12:57:09.097Z,10.53
2019-05-22T12:59:38.458Z,10.70
2019-05-22T13:02:09.171Z,10.17
2019-05-22T13:04:38.743Z,8.90
2019-05-22T13:07:07.955Z,9.40
2019-05-22T13:09:37.065Z,9.93
2019-05-22T13:12:06.596Z,9.60
2019-05-22T13:14:36.264Z,10.10
2019-05-22T13:17:07.631Z,9.63
2019-05-22T13:19:37.651Z,9.30
2019-05-22T13:22:10.403Z,10.60
2019-05-22T13:24:39.220Z,11.50
2019-05-22T13:27:11.286Z,9.30
2019-05-22T13:29:40.559Z,9.97
2019-05-22T13:32:10.187Z,10.20
2019-05-22T13:34:39.957Z,10.33
2019-05-22T13:37:10.014Z,10.20
2019-05-22T13:39:38.824Z,10.70
2019-05-22T13:42:07.599Z,11.70
2019-05-22T13:44:36.632Z,10.17
2019-05-22T13:47:06.231Z,10.17
2019-05-22T13:49:37.343Z,10.10
2019-05-22T13:52:06.670Z,9.50
2019-05-22T13:54:36.098Z,11.63
2019-05-22T13:57:05.928Z,9.87
2019-05-22T13:59:35.061Z,11.93
2019-05-22T14:02:04.003Z,11.50
2019-05-22T14:04:32.758Z,11.07
2019-05-22T14:07:01.968Z,9.43
2019-05-22T14:09:31.433Z,9.53
2019-05-22T14:12:00.383Z,9.93
2019-05-22T14:14:29.110Z,10.53
2019-05-22T14:16:58.214Z,10.13
2019-05-22T14:19:26.959Z,9.77
2019-05-22T14:21:55.676Z,9.27
2019-05-22T14:24:24.434Z,9.87
2019-05-22T14:26:53.420Z,8.40
2019-05-22T14:29:22.151Z,8.97
2019-05-22T14:31:50.989Z,9.33
2019-05-22T14:34:19.977Z,7.93
2019-05-22T14:36:48.706Z,7.97
2019-05-22T14:39:17.443Z,8.33
2019-05-22T14:41:46.272Z,7.53
2019-05-22T14:44:15.226Z,9.17
2019-05-22T14:46:44.018Z,8.77
2019-05-22T14:49:12.883Z,8.60
2019-05-22T14:51:41.950Z,8.80
2019-05-22T14:54:11.607Z,7.50
2019-05-22T14:56:40.681Z,7.90
2019-05-22T14:59:09.409Z,7.53
2019-05-22T15:01:38.340Z,7.03
2019-05-22T15:04:07.647Z,6.80
2019-05-22T15:06:36.458Z,6.60
2019-05-22T15:09:07.706Z,7.07
2019-05-22T15:11:36.730Z,6.47
2019-05-22T15:14:05.454Z,7.27
2019-05-22T15:16:34.200Z,6.92
2019-05-22T15:19:03.025Z,6.40
2019-05-22T15:21:31.742Z,6.00
2019-05-22T15:24:01.564Z,5.73
2019-05-22T15:26:30.303Z,6.33
2019-05-22T15:28:59.216Z,6.90
2019-05-22T15:31:28.138Z,6.37
2019-05-22T15:33:56.875Z,6.00
2019-05-22T15:36:25.978Z,6.53
2019-05-22T15:38:54.712Z,6.60
2019-05-22T15:41:23.633Z,6.03
2019-05-22T15:43:53.488Z,6.10
2019-05-22T15:46:23.192Z,6.67
2019-05-22T15:48:51.906Z,5.70
2019-05-22T15:51:22.681Z,6.60
2019-05-22T15:53:52.930Z,5.63
2019-05-22T15:56:22.015Z,6.53
2019-05-22T15:58:52.078Z,5.40
2019-05-22T16:01:22.505Z,6.13
2019-05-22T16:03:52.227Z,6.07
2019-05-22T16:06:21.753Z,6.00
2019-05-22T16:08:50.755Z,6.10
2019-05-22T16:11:21.194Z,5.97
2019-05-22T16:13:50.106Z,6.00
2019-05-22T16:16:21.038Z,5.90
2019-05-22T16:18:49.833Z,6.53
2019-05-22T16:21:19.166Z,6.17
2019-05-22T16:23:47.978Z,6.17
2019-05-22T16:26:17.518Z,6.23
2019-05-22T16:28:48.583Z,6.13
2019-05-22T16:31:19.176Z,6.40
2019-05-22T16:33:49.235Z,6.27
2019-05-22T16:36:20.031Z,6.63
2019-05-22T16:38:49.733Z,6.37
2019-05-22T16:41:18.814Z,6.93
2019-05-22T16:43:50.441Z,6.80
2019-05-22T16:46:20.403Z,6.10
2019-05-22T16:48:49.225Z,6.07
2019-05-22T16:51:18.319Z,6.13
2019-05-22T16:53:50.670Z,6.80
2019-05-22T16:56:20.516Z,6.75
2019-05-22T16:58:50.102Z,6.37
2019-05-22T17:01:20.433Z,7.70
2019-05-22T17:03:50.948Z,6.83
2019-05-22T17:06:20.795Z,6.80
2019-05-22T17:08:51.038Z,6.70
2019-05-22T17:11:19.855Z,7.07
2019-05-22T17:13:48.637Z,8.03
2019-05-22T17:16:18.350Z,7.00
2019-05-22T17:18:48.673Z,7.20
2019-05-22T17:21:17.746Z,7.00
2019-05-22T17:23:47.033Z,6.27
2019-05-22T17:26:16.538Z,7.17
2019-05-22T17:28:45.481Z,6.40
2019-05-22T17:31:15.031Z,6.57
2019-05-22T17:33:44.119Z,6.80
2019-05-22T17:36:13.453Z,7.10
2019-05-22T17:38:42.864Z,6.80
2019-05-22T17:41:12.519Z,7.17
2019-05-22T17:43:41.836Z,6.33
2019-05-22T17:46:12.091Z,7.37
2019-05-22T17:48:41.337Z,6.90
2019-05-22T17:51:10.569Z,6.80
2019-05-22T17:53:39.276Z,6.20
2019-05-22T17:56:08.219Z,6.63
2019-05-22T17:58:37.246Z,6.17
2019-05-22T18:01:07.190Z,5.73
2019-05-22T18:03:35.918Z,6.00
2019-05-22T18:06:05.721Z,5.37
2019-05-22T18:08:34.498Z,6.13
2019-05-22T18:11:05.747Z,5.60
2019-05-22T18:13:36.660Z,6.45
2019-05-22T18:16:06.187Z,6.47
2019-05-22T18:18:35.212Z,5.60
2019-05-22T18:21:04.687Z,7.83
2019-05-22T18:23:33.542Z,5.60
2019-05-22T18:26:02.305Z,6.10
2019-05-22T18:28:31.039Z,5.60
2019-05-22T18:30:59.809Z,4.83
2019-05-22T18:33:28.737Z,5.30
2019-05-22T18:35:57.474Z,4.80
2019-05-22T18:38:26.352Z,5.90
2019-05-22T18:40:55.201Z,4.90
2019-05-22T18:43:24.166Z,4.80
2019-05-22T18:45:53.364Z,5.10
2019-05-22T18:48:22.143Z,5.13
2019-05-22T18:50:52.399Z,5.10
2019-05-22T18:53:21.418Z,4.83
2019-05-22T18:55:50.169Z,5.17
2019-05-22T18:58:19.004Z,5.07
2019-05-22T19:00:48.084Z,4.93
2019-05-22T19:03:16.869Z,5.30
2019-05-22T19:05:45.937Z,5.47
2019-05-22T19:08:14.750Z,5.53
2019-05-22T19:10:43.521Z,5.83
2019-05-22T19:13:14.546Z,6.00
2019-05-22T19:15:42.716Z,5.60
2019-05-22T19:18:11.597Z,5.70
2019-05-22T19:20:40.346Z,5.60
2019-05-22T19:23:09.190Z,5.97
2019-05-22T19:25:37.996Z,5.50
2019-05-22T19:28:06.796Z,5.97
2019-05-22T19:30:36.199Z,5.00
2019-05-22T19:33:05.223Z,5.83
2019-05-22T19:35:34.127Z,5.50
2019-05-22T19:38:03.663Z,5.30
2019-05-22T19:40:32.648Z,5.73
2019-05-22T19:43:01.994Z,5.13
2019-05-22T19:45:31.356Z,5.07
2019-05-22T19:48:00.577Z,5.20
2019-05-22T19:50:31.084Z,5.43
2019-05-22T19:53:17.684Z,5.60
2019-05-22T19:55:32.436Z,5.57
2019-05-22T19:58:01.932Z,5.07
2019-05-22T20:00:31.573Z,5.73
2019-05-22T20:03:00.875Z,5.50
2019-05-22T20:05:32.627Z,5.83
2019-05-22T20:08:01.891Z,5.80
2019-05-22T20:10:31.001Z,6.50
2019-05-22T20:13:00.242Z,6.30
2019-05-22T20:15:29.615Z,6.43
2019-05-22T20:17:58.920Z,6.17
2019-05-22T20:20:28.325Z,6.70
2019-05-22T20:22:58.109Z,6.67
2019-05-22T20:25:27.416Z,7.10
2019-05-22T20:27:56.526Z,7.20
2019-05-22T20:30:26.840Z,7.50
2019-05-22T20:32:55.616Z,7.07
2019-05-22T20:35:24.446Z,6.80
2019-05-22T20:37:53.214Z,8.13
2019-05-22T20:40:23.206Z,7.57
2019-05-22T20:42:52.261Z,7.13
2019-05-22T20:45:23.819Z,8.63
2019-05-22T20:48:14.324Z,9.67
2019-05-22T20:50:44.014Z,7.50
2019-05-22T20:53:13.191Z,7.87
2019-05-22T20:55:43.563Z,8.03
2019-05-22T20:58:13.412Z,8.00
2019-05-22T21:00:42.236Z,7.53
2019-05-22T21:03:11.225Z,9.70
2019-05-22T21:05:41.751Z,8.70
2019-05-22T21:08:12.085Z,9.47
2019-05-22T21:10:46.730Z,8.73
2019-05-22T21:13:18.341Z,8.40
2019-05-22T21:15:47.314Z,8.57
2019-05-22T21:18:18.663Z,8.50
2019-05-22T21:20:54.711Z,7.97
2019-05-22T21:23:20.347Z,8.73
2019-05-22T21:25:49.590Z,9.07
2019-05-22T21:28:18.726Z,8.43
2019-05-22T21:30:47.549Z,9.43
2019-05-22T21:33:16.560Z,8.73
2019-05-22T21:35:45.315Z,9.07
2019-05-22T21:38:14.475Z,10.87
2019-05-22T21:40:43.433Z,9.93
2019-05-22T21:43:12.602Z,9.53
2019-05-22T21:45:41.675Z,10.50
2019-05-22T21:48:10.989Z,9.63
2019-05-22T21:50:39.711Z,9.57
2019-05-22T21:53:11.240Z,8.40
2019-05-22T21:55:45.405Z,8.57
2019-05-22T21:58:12.262Z,7.73
2019-05-22T22:01:01.629Z,9.47
2019-05-22T22:03:34.860Z,10.10
2019-05-22T22:06:04.538Z,10.43
2019-05-22T22:08:34.158Z,11.30
2019-05-22T22:11:03.537Z,9.60
2019-05-22T22:13:33.062Z,9.00
2019-05-22T22:16:03.815Z,8.57
2019-05-22T22:18:32.735Z,8.40
2019-05-22T22:21:02.077Z,8.70
2019-05-22T22:23:30.789Z,9.03
2019-05-22T22:26:00.226Z,8.47
2019-05-22T22:28:29.544Z,7.80
2019-05-22T22:31:02.559Z,9.13
2019-05-22T22:33:32.715Z,8.30
2019-05-22T22:36:02.081Z,8.00
2019-05-22T22:38:31.720Z,8.40
2019-05-22T22:41:00.859Z,9.43
2019-05-22T22:43:32.334Z,7.97
2019-05-22T22:46:09.120Z,9.07
2019-05-22T22:48:39.546Z,8.57
2019-05-22T22:51:11.667Z,9.20
2019-05-22T22:53:40.735Z,8.47
2019-05-22T22:56:09.591Z,8.87
2019-05-22T22:58:39.505Z,9.20
2019-05-22T23:01:10.426Z,10.33
2019-05-22T23:03:39.422Z,11.83
2019-05-22T23:06:09.339Z,8.90
2019-05-22T23:08:39.681Z,9.27
2019-05-22T23:11:08.985Z,9.10
2019-05-22T23:13:38.222Z,8.67
2019-05-22T23:16:07.747Z,9.77
2019-05-22T23:19:06.680Z,9.00
2019-05-22T23:21:35.883Z,9.63
2019-05-22T23:24:05.017Z,9.20
2019-05-22T23:26:35.867Z,8.90
2019-05-22T23:29:06.885Z,8.60
2019-05-22T23:31:36.111Z,9.03
2019-05-22T23:34:06.304Z,9.50
2019-05-22T23:36:35.350Z,9.47
2019-05-22T23:39:07.629Z,8.50
2019-05-22T23:41:37.855Z,9.30
2019-05-22T23:44:08.909Z,9.50
2019-05-22T23:46:38.063Z,8.97
2019-05-22T23:49:07.881Z,9.63
2019-05-22T23:51:36.911Z,9.37
2019-05-22T23:54:05.623Z,9.03
2019-05-22T23:56:36.397Z,9.10
2019-05-22T23:59:05.108Z,9.23
